Terminal Aerodrome Forecast
Issued by NWS Portland, ME

Home | Current Version | Previous Version | Text Only | Print | Product List | Glossary On
Versions: 1 2 3 4 5 6 7 8 9 10 11 12 13 14 15 16
488
FTUS41 KGYX 111723
TAFPWM
TAF
KPWM 111723Z 1118/1218 24008G14KT P6SM FEW090
     FM112200 29007KT P6SM SCT250
     FM120500 06007KT P6SM BKN090
     FM121000 08007KT 2SM -SN BR OVC012=

USA.gov is the U.S. government's official web portal to all federal, state and local government web resources and services.